Time,TemperatureF,DewpointF,PressureIn,WindDirection,WindDirectionDegrees,WindSpeedMPH,WindSpeedGustMPH,Humidity,HourlyPrecipIn,Conditions,Clouds,dailyrainin,SoftwareType,DateUTC
2013-07-11 00:01:00,75.4,69.0,29.93,ENE,64,0.0,0.0,81,0.00,,,0.01,weatherlink.com 1.10,2013-07-11 04:01:00,
2013-07-11 00:16:00,75.1,70.0,29.93,ENE,64,0.0,0.0,83,0.00,,,0.01,weatherlink.com 1.10,2013-07-11 04:16:00,
2013-07-11 00:31:00,74.7,69.0,29.93,ENE,64,0.0,0.0,83,0.00,,,0.01,weatherlink.com 1.10,2013-07-11 04:31:00,
2013-07-11 00:46:00,74.2,69.0,29.92,ENE,64,0.0,0.0,84,0.00,,,0.01,weatherlink.com 1.10,2013-07-11 04:46:00,
2013-07-11 01:01:00,74.0,70.0,29.92,ENE,64,0.0,0.0,86,0.00,,,0.01,weatherlink.com 1.10,2013-07-11 05:01:00,
2013-07-11 01:16:00,73.9,70.0,29.91,East,101,0.0,0.0,86,0.00,,,0.01,weatherlink.com 1.10,2013-07-11 05:16:00,
2013-07-11 01:31:00,73.5,70.0,29.91,East,101,0.0,0.0,87,0.00,,,0.01,weatherlink.com 1.10,2013-07-11 05:31:00,
2013-07-11 01:46:00,73.3,69.0,29.90,East,101,0.0,0.0,87,0.00,,,0.01,weatherlink.com 1.10,2013-07-11 05:46:00,
2013-07-11 02:01:00,73.2,70.0,29.90,East,101,0.0,0.0,88,0.00,,,0.01,weatherlink.com 1.10,2013-07-11 06:01:00,
2013-07-11 02:16:00,73.0,69.0,29.90,East,101,0.0,0.0,88,0.00,,,0.00,weatherlink.com 1.10,2013-07-11 06:16:00,
2013-07-11 02:31:00,72.8,69.0,29.90,East,101,0.0,0.0,88,0.00,,,0.00,weatherlink.com 1.10,2013-07-11 06:31:00,
2013-07-11 02:46:00,72.7,69.0,29.91,East,101,0.0,1.0,88,0.00,,,0.00,weatherlink.com 1.10,2013-07-11 06:46:00,
2013-07-11 03:01:00,72.5,69.0,29.91,East,101,0.0,0.0,89,0.00,,,0.00,weatherlink.com 1.10,2013-07-11 07:01:00,
2013-07-11 03:16:00,72.3,69.0,29.92,East,101,0.0,0.0,89,0.00,,,0.00,weatherlink.com 1.10,2013-07-11 07:16:00,
2013-07-11 03:31:00,72.0,69.0,29.92,East,101,0.0,0.0,90,0.00,,,0.00,weatherlink.com 1.10,2013-07-11 07:31:00,
2013-07-11 03:46:00,72.0,69.0,29.93,East,101,0.0,0.0,90,0.00,,,0.00,weatherlink.com 1.10,2013-07-11 07:46:00,
2013-07-11 04:01:00,72.0,69.0,29.92,East,101,0.0,1.0,91,0.00,,,0.00,weatherlink.com 1.10,2013-07-11 08:01:00,
2013-07-11 04:16:00,71.8,69.0,29.92,East,101,0.0,0.0,91,0.00,,,0.00,weatherlink.com 1.10,2013-07-11 08:16:00,
2013-07-11 04:31:00,71.8,69.0,29.92,East,101,0.0,0.0,91,0.00,,,0.00,weatherlink.com 1.10,2013-07-11 08:31:00,
2013-07-11 04:46:00,72.0,69.0,29.92,East,101,0.0,0.0,91,0.00,,,0.00,weatherlink.com 1.10,2013-07-11 08:46:00,
2013-07-11 05:01:00,72.0,70.0,29.92,East,101,0.0,1.0,92,0.00,,,0.00,weatherlink.com 1.10,2013-07-11 09:01:00,
2013-07-11 05:16:00,72.1,70.0,29.92,East,101,0.0,0.0,92,0.00,,,0.00,weatherlink.com 1.10,2013-07-11 09:16:00,
2013-07-11 05:31:00,72.1,70.0,29.91,East,101,0.0,0.0,92,0.00,,,0.00,weatherlink.com 1.10,2013-07-11 09:31:00,
2013-07-11 05:46:00,72.3,70.0,29.91,East,101,0.0,0.0,92,0.00,,,0.00,weatherlink.com 1.10,2013-07-11 09:46:00,
2013-07-11 06:01:00,72.5,70.0,29.92,East,101,0.0,0.0,92,0.00,,,0.00,weatherlink.com 1.10,2013-07-11 10:01:00,
2013-07-11 06:16:00,72.5,70.0,29.92,East,101,0.0,1.0,93,0.00,,,0.00,weatherlink.com 1.10,2013-07-11 10:16:00,
2013-07-11 06:31:00,72.7,71.0,29.93,SE,136,0.0,2.0,93,0.00,,,0.00,weatherlink.com 1.10,2013-07-11 10:31:00,
2013-07-11 06:46:00,72.7,71.0,29.93,SSE,153,0.0,3.0,93,0.00,,,0.00,weatherlink.com 1.10,2013-07-11 10:46:00,
2013-07-11 07:01:00,72.8,71.0,29.93,SSE,157,0.0,2.0,93,0.00,,,0.00,weatherlink.com 1.10,2013-07-11 11:01:00,
2013-07-11 07:16:00,72.8,71.0,29.93,ESE,121,0.0,2.0,93,0.00,,,0.00,weatherlink.com 1.10,2013-07-11 11:16:00,
2013-07-11 07:31:00,73.0,71.0,29.93,South,183,0.0,1.0,93,0.00,,,0.00,weatherlink.com 1.10,2013-07-11 11:31:00,
2013-07-11 07:46:00,73.3,71.0,29.93,South,183,0.0,0.0,93,0.00,,,0.00,weatherlink.com 1.10,2013-07-11 11:46:00,
2013-07-11 08:01:00,73.5,71.0,29.93,South,183,0.0,1.0,93,0.00,,,0.00,weatherlink.com 1.10,2013-07-11 12:01:00,
2013-07-11 08:16:00,73.7,72.0,29.93,South,183,0.0,3.0,93,0.00,,,0.00,weatherlink.com 1.10,2013-07-11 12:16:00,
2013-07-11 08:31:00,73.9,72.0,29.93,South,188,0.0,3.0,93,0.00,,,0.00,weatherlink.com 1.10,2013-07-11 12:31:00,
2013-07-11 08:46:00,73.9,72.0,29.93,SE,146,0.0,2.0,93,0.00,,,0.00,weatherlink.com 1.10,2013-07-11 12:46:00,
2013-07-11 09:01:00,74.0,72.0,29.93,South,186,0.0,2.0,92,0.00,,,0.00,weatherlink.com 1.10,2013-07-11 13:01:00,
2013-07-11 09:16:00,74.0,72.0,29.93,South,183,0.0,3.0,93,0.00,,,0.00,weatherlink.com 1.10,2013-07-11 13:16:00,
2013-07-11 09:31:00,74.2,72.0,29.93,South,183,0.0,0.0,94,0.01,,,0.01,weatherlink.com 1.10,2013-07-11 13:31:00,
2013-07-11 09:46:00,73.9,72.0,29.93,South,183,0.0,1.0,94,0.02,,,0.02,weatherlink.com 1.10,2013-07-11 13:46:00,
2013-07-11 10:01:00,73.7,72.0,29.93,ESE,121,0.0,0.0,95,0.02,,,0.02,weatherlink.com 1.10,2013-07-11 14:01:00,
2013-07-11 10:16:00,73.7,73.0,29.93,ESE,121,0.0,0.0,96,0.02,,,0.02,weatherlink.com 1.10,2013-07-11 14:16:00,
2013-07-11 10:31:00,73.9,73.0,29.93,ESE,121,0.0,0.0,96,0.01,,,0.02,weatherlink.com 1.10,2013-07-11 14:31:00,
2013-07-11 10:46:00,74.4,74.0,29.94,ESE,121,0.0,0.0,97,0.00,,,0.02,weatherlink.com 1.10,2013-07-11 14:46:00,
2013-07-11 11:01:00,74.4,74.0,29.93,ESE,121,0.0,0.0,97,0.00,,,0.02,weatherlink.com 1.10,2013-07-11 15:01:00,
2013-07-11 11:32:00,74.0,73.0,29.93,South,185,0.0,2.0,96,0.00,,,0.02,weatherlink.com 1.10,2013-07-11 15:32:00,
2013-07-11 11:47:00,74.0,73.0,29.93,South,185,0.0,0.0,96,0.00,,,0.02,weatherlink.com 1.10,2013-07-11 15:47:00,
2013-07-11 12:02:00,74.2,73.0,29.93,South,185,0.0,1.0,96,0.00,,,0.02,weatherlink.com 1.10,2013-07-11 16:02:00,
2013-07-11 12:17:00,74.4,73.0,29.93,South,185,0.0,0.0,96,0.00,,,0.02,weatherlink.com 1.10,2013-07-11 16:17:00,
2013-07-11 12:32:00,75.1,74.0,29.92,South,185,0.0,1.0,97,0.00,,,0.02,weatherlink.com 1.10,2013-07-11 16:32:00,
2013-07-11 12:47:00,76.0,75.0,29.92,ESE,109,0.0,2.0,95,0.00,,,0.02,weatherlink.com 1.10,2013-07-11 16:47:00,
2013-07-11 13:02:00,77.0,74.0,29.92,North,11,0.0,3.0,90,0.00,,,0.02,weatherlink.com 1.10,2013-07-11 17:02:00,
2013-07-11 13:17:00,77.7,74.0,29.92,NNE,30,0.0,2.0,88,0.00,,,0.02,weatherlink.com 1.10,2013-07-11 17:17:00,
2013-07-11 13:32:00,78.5,74.0,29.90,SE,145,0.0,1.0,85,0.00,,,0.02,weatherlink.com 1.10,2013-07-11 17:32:00,
2013-07-11 13:47:00,78.8,74.0,29.90,SE,146,0.0,0.0,85,0.00,,,0.02,weatherlink.com 1.10,2013-07-11 17:47:00,
2013-07-11 14:02:00,78.8,75.0,29.89,SE,146,0.0,0.0,87,0.00,,,0.02,weatherlink.com 1.10,2013-07-11 18:02:00,
2013-07-11 14:17:00,78.1,74.0,29.89,SE,146,0.0,1.0,88,0.00,,,0.02,weatherlink.com 1.10,2013-07-11 18:17:00,
2013-07-11 14:32:00,77.0,74.0,29.89,SSE,152,0.0,3.0,91,0.01,,,0.03,weatherlink.com 1.10,2013-07-11 18:32:00,
2013-07-11 15:02:00,76.8,75.0,29.89,SSE,152,0.0,0.0,93,0.01,,,0.03,weatherlink.com 1.10,2013-07-11 19:02:00,
2013-07-11 15:32:00,76.7,74.0,29.88,SSE,152,0.0,1.0,91,0.00,,,0.03,weatherlink.com 1.10,2013-07-11 19:32:00,
2013-07-11 15:47:00,77.2,75.0,29.87,SSE,152,0.0,1.0,92,0.00,,,0.03,weatherlink.com 1.10,2013-07-11 19:47:00,
2013-07-11 16:02:00,77.6,74.0,29.86,SSE,152,0.0,1.0,87,0.00,,,0.03,weatherlink.com 1.10,2013-07-11 20:02:00,
2013-07-11 16:17:00,77.9,74.0,29.86,SSE,152,1.0,1.0,86,0.00,,,0.03,weatherlink.com 1.10,2013-07-11 20:17:00,
2013-07-11 16:47:00,79.2,75.0,29.84,SSE,152,0.0,1.0,86,0.00,,,0.03,weatherlink.com 1.10,2013-07-11 20:47:00,
2013-07-11 17:02:00,78.8,75.0,29.85,SSE,152,0.0,0.0,87,0.00,,,0.03,weatherlink.com 1.10,2013-07-11 21:02:00,
2013-07-11 17:17:00,78.6,75.0,29.84,SSE,152,0.0,0.0,87,0.00,,,0.03,weatherlink.com 1.10,2013-07-11 21:17:00,
2013-07-11 17:32:00,78.5,75.0,29.84,SSE,152,0.0,0.0,89,0.00,,,0.03,weatherlink.com 1.10,2013-07-11 21:32:00,
2013-07-11 17:47:00,77.9,75.0,29.86,SSE,152,0.0,1.0,90,0.00,,,0.03,weatherlink.com 1.10,2013-07-11 21:47:00,
2013-07-11 18:02:00,77.4,75.0,29.86,WSW,241,0.0,1.0,92,0.01,,,0.04,weatherlink.com 1.10,2013-07-11 22:02:00,
2013-07-11 18:17:00,76.3,74.0,29.85,WSW,242,0.0,1.0,93,0.01,,,0.04,weatherlink.com 1.10,2013-07-11 22:17:00,
2013-07-11 19:02:00,76.0,75.0,29.87,WSW,242,0.0,1.0,95,0.00,,,0.04,weatherlink.com 1.10,2013-07-11 23:02:00,
2013-07-11 19:47:00,73.3,72.0,29.85,SE,126,0.0,0.0,95,0.00,,,0.04,weatherlink.com 1.10,2013-07-11 23:47:00,
2013-07-11 20:02:00,73.0,72.0,29.85,South,176,0.0,3.0,95,0.00,,,0.04,weatherlink.com 1.10,2013-07-12 00:02:00,
2013-07-11 20:17:00,72.5,71.0,29.86,SSE,153,0.0,1.0,96,0.00,,,0.04,weatherlink.com 1.10,2013-07-12 00:17:00,
2013-07-11 20:32:00,71.6,70.0,29.86,SSE,153,0.0,0.0,95,0.00,,,0.04,weatherlink.com 1.10,2013-07-12 00:32:00,
2013-07-11 20:47:00,71.3,70.0,29.86,SSE,153,0.0,0.0,95,0.00,,,0.04,weatherlink.com 1.10,2013-07-12 00:47:00,
2013-07-11 21:02:00,70.8,69.0,29.86,SSE,153,0.0,0.0,95,0.00,,,0.04,weatherlink.com 1.10,2013-07-12 01:02:00,
2013-07-11 21:17:00,70.6,70.0,29.86,SSE,153,0.0,0.0,96,0.00,,,0.04,weatherlink.com 1.10,2013-07-12 01:17:00,
2013-07-11 21:32:00,70.4,69.0,29.86,SSE,153,0.0,0.0,96,0.00,,,0.04,weatherlink.com 1.10,2013-07-12 01:32:00,
2013-07-11 21:47:00,70.6,70.0,29.86,SSE,153,0.0,0.0,97,0.00,,,0.04,weatherlink.com 1.10,2013-07-12 01:47:00,
2013-07-11 22:02:00,70.4,70.0,29.87,SSE,153,0.0,0.0,97,0.00,,,0.04,weatherlink.com 1.10,2013-07-12 02:02:00,
2013-07-11 22:17:00,70.6,70.0,29.88,SSE,153,0.0,0.0,97,0.00,,,0.04,weatherlink.com 1.10,2013-07-12 02:17:00,
2013-07-11 22:32:00,70.6,70.0,29.89,SSE,153,0.0,0.0,98,0.00,,,0.04,weatherlink.com 1.10,2013-07-12 02:32:00,
2013-07-11 22:47:00,70.8,70.0,29.90,SSE,153,0.0,0.0,98,0.00,,,0.04,weatherlink.com 1.10,2013-07-12 02:47:00,
2013-07-11 23:02:00,70.8,70.0,29.89,SSE,153,0.0,0.0,98,0.00,,,0.04,weatherlink.com 1.10,2013-07-12 03:02:00,
2013-07-11 23:17:00,70.8,70.0,29.88,SSE,153,0.0,0.0,98,0.00,,,0.04,weatherlink.com 1.10,2013-07-12 03:17:00,
2013-07-11 23:32:00,70.6,70.0,29.88,SSE,153,0.0,0.0,98,0.00,,,0.04,weatherlink.com 1.10,2013-07-12 03:32:00,
2013-07-11 23:47:00,70.4,70.0,29.88,SSE,153,0.0,0.0,98,0.00,,,0.04,weatherlink.com 1.10,2013-07-12 03:47:00,